TAF KHUT
KHUT 072324Z 0800/0824 VRB04KT P6SM BKN200 FM080100 VRB04KT P6SM SCT150 BKN190 FM082300 16014KT P6SM SCT250=
METAR KHUT
WC KHUT
WS KHUT
WV KHUT